Time;durP1;ratioP1;P1;durP2;ratioP2;P2;SDS_P1;SDS_P2;PMS_P1;PMS_P2;Temp;Humidity;BMP_temperature;BMP_pressure;BME280_temperature;BME280_humidity;BME280_pressure;Samples;Min_cycle;Max_cycle;Signal;HPM_P1;HPM_P2
2023/02/02 00:01:47;;;;;;;1999.90;999.90;;;7.30;99.90;;;;;;5111118;28;20451;-67
2023/02/02 00:04:18;;;;;;;1999.90;999.90;;;7.20;99.90;;;;;;5110973;28;20457;-68
2023/02/02 00:06:45;;;;;;;1999.90;999.90;;;7.30;99.90;;;;;;5110160;28;20469;-68
2023/02/02 00:09:13;;;;;;;1999.90;999.90;;;7.20;99.90;;;;;;5110833;28;20464;-67
2023/02/02 00:11:40;;;;;;;1999.90;999.90;;;7.20;99.90;;;;;;5111192;28;20449;-67
2023/02/02 00:14:07;;;;;;;1999.90;999.90;;;7.20;99.90;;;;;;5110517;28;20450;-68
2023/02/02 00:16:40;;;;;;;1999.90;999.90;;;7.30;99.90;;;;;;5111744;28;20518;-67
2023/02/02 00:19:09;;;;;;;1999.90;999.90;;;7.20;99.90;;;;;;5118991;27;20440;-67
2023/02/02 00:21:38;;;;;;;1999.90;999.90;;;7.20;99.90;;;;;;5131430;27;20451;-69
2023/02/02 00:24:05;;;;;;;1999.90;999.90;;;7.20;99.90;;;;;;5132463;27;20440;-68
2023/02/02 00:26:32;;;;;;;1999.90;999.90;;;7.20;99.90;;;;;;5133862;27;20491;-68
2023/02/02 00:28:59;;;;;;;1999.90;999.90;;;7.20;99.90;;;;;;5133521;27;20444;-68
2023/02/02 00:31:25;;;;;;;1999.90;999.90;;;7.20;99.90;;;;;;5117252;27;20451;-69
2023/02/02 00:33:52;;;;;;;1999.90;999.90;;;7.20;99.90;;;;;;5111972;28;20429;-68
2023/02/02 00:36:20;;;;;;;1999.90;999.90;;;7.20;99.90;;;;;;5111853;28;20457;-67
2023/02/02 00:38:49;;;;;;;1999.90;999.90;;;7.20;99.90;;;;;;5111957;28;20917;-68
2023/02/02 00:41:17;;;;;;;1999.90;999.90;;;7.20;99.90;;;;;;5112387;28;21081;-67
2023/02/02 00:43:43;;;;;;;1999.90;999.90;;;7.20;99.90;;;;;;5111775;28;20437;-67
2023/02/02 00:46:13;;;;;;;1999.90;999.90;;;7.20;99.90;;;;;;5111555;28;20472;-67
2023/02/02 00:48:40;;;;;;;1999.90;999.90;;;7.20;99.90;;;;;;5091583;28;20439;-67
2023/02/02 00:51:06;;;;;;;1999.90;999.90;;;7.20;99.90;;;;;;5092274;28;20451;-67
2023/02/02 00:53:33;;;;;;;1999.90;999.90;;;7.20;99.90;;;;;;5092555;28;20454;-67
2023/02/02 00:56:01;;;;;;;1999.90;999.90;;;7.30;99.90;;;;;;5091872;28;20466;-66
2023/02/02 00:58:28;;;;;;;1999.90;999.90;;;7.30;99.90;;;;;;5091495;28;20450;-67
2023/02/02 01:00:55;;;;;;;1999.90;999.90;;;7.30;99.90;;;;;;5092428;28;20446;-67
2023/02/02 01:03:21;;;;;;;1999.90;999.90;;;7.30;99.90;;;;;;5100630;28;20461;-69
2023/02/02 01:05:50;;;;;;;1999.90;999.90;;;7.30;99.90;;;;;;5112752;28;20492;-68
2023/02/02 01:08:17;;;;;;;1999.90;999.90;;;7.30;99.90;;;;;;5112075;28;20445;-67
2023/02/02 01:10:44;;;;;;;1999.90;999.90;;;7.30;99.90;;;;;;5111352;28;20448;-67
2023/02/02 01:13:12;;;;;;;1999.90;999.90;;;7.30;99.90;;;;;;5110909;28;20446;-67
2023/02/02 01:15:39;;;;;;;1999.90;999.90;;;7.30;99.90;;;;;;5110803;28;20469;-68
2023/02/02 01:18:06;;;;;;;1999.90;999.90;;;7.30;99.90;;;;;;5112013;28;20448;-68
2023/02/02 01:20:32;;;;;;;1999.90;999.90;;;7.30;99.90;;;;;;5111412;28;20453;-68
2023/02/02 01:22:59;;;;;;;1999.90;999.90;;;7.30;99.90;;;;;;5111288;28;20599;-68
2023/02/02 01:25:26;;;;;;;1999.90;999.90;;;7.30;99.90;;;;;;5111108;28;20476;-68
2023/02/02 01:27:53;;;;;;;1999.90;999.90;;;7.30;99.90;;;;;;5112323;28;20445;-68
2023/02/02 01:30:21;;;;;;;1999.90;999.90;;;7.30;99.90;;;;;;5112084;28;20456;-67
2023/02/02 01:32:48;;;;;;;1999.90;999.90;;;7.20;99.90;;;;;;5111364;28;20457;-68
2023/02/02 01:35:15;;;;;;;1999.90;999.90;;;7.10;99.90;;;;;;5111208;28;20469;-68
2023/02/02 01:37:42;;;;;;;1999.90;999.90;;;7.10;99.90;;;;;;5111775;28;20848;-68
2023/02/02 01:40:10;;;;;;;1999.90;999.90;;;7.10;99.90;;;;;;5112481;28;20475;-68
2023/02/02 01:42:37;;;;;;;1999.90;999.90;;;7.10;99.90;;;;;;5111132;28;20951;-67
2023/02/02 01:45:27;;;;;;;1999.90;999.90;;;7.10;99.90;;;;;;5111926;28;20465;-67
2023/02/02 01:47:58;;;;;;;1999.90;999.90;;;7.20;99.90;;;;;;5110989;28;20446;-67
2023/02/02 01:50:28;;;;;;;1999.90;999.90;;;7.20;99.90;;;;;;5111707;28;20449;-68
2023/02/02 01:52:57;;;;;;;1999.90;999.90;;;7.20;99.90;;;;;;5111056;28;20449;-68
2023/02/02 01:55:27;;;;;;;1999.90;999.90;;;7.10;99.90;;;;;;5111564;28;20464;-68
2023/02/02 01:57:57;;;;;;;1999.90;999.90;;;7.10;99.90;;;;;;5110819;28;21133;-67
2023/02/02 02:00:26;;;;;;;1999.90;999.90;;;7.10;99.90;;;;;;5110383;28;20441;-67
2023/02/02 02:02:56;;;;;;;1999.90;999.90;;;7.10;99.90;;;;;;5110569;28;20465;-67
2023/02/02 02:05:28;;;;;;;1999.90;999.90;;;7.10;99.90;;;;;;5110702;28;20470;-68
2023/02/02 02:08:03;;;;;;;1999.90;999.90;;;7.10;99.90;;;;;;5110528;28;20437;-67
2023/02/02 02:10:29;;;;;;;1999.90;999.90;;;7.10;99.90;;;;;;5111239;28;20440;-67
2023/02/02 02:12:57;;;;;;;1999.90;999.90;;;7.10;99.90;;;;;;5110617;28;20445;-68
2023/02/02 02:18:25;;;;;;;1999.90;999.90;;;7.10;99.90;;;;;;5111218;28;20938;-68
2023/02/02 02:28:30;;;;;;;1999.90;999.90;;;7.00;99.90;;;;;;5135200;28;20468;-68
2023/02/02 02:31:34;;;;;;;1999.90;999.90;;;7.00;99.90;;;;;;5114769;28;20422;-68
2023/02/02 02:34:07;;;;;;;1999.90;999.90;;;7.10;99.90;;;;;;5114575;28;20429;-70
2023/02/02 02:36:45;;;;;;;1999.90;999.90;;;7.10;99.90;;;;;;5105939;28;20458;-67
2023/02/02 02:39:17;;;;;;;1999.90;999.90;;;7.00;99.90;;;;;;5090463;28;20448;-67
2023/02/02 02:41:49;;;;;;;1999.90;999.90;;;7.00;99.90;;;;;;5091054;28;20457;-69
2023/02/02 02:44:18;;;;;;;1999.90;999.90;;;6.90;99.90;;;;;;5107142;28;20441;-69
2023/02/02 02:46:45;;;;;;;1999.90;999.90;;;6.80;99.90;;;;;;5111983;28;20488;-68
2023/02/02 02:49:14;;;;;;;1999.90;999.90;;;6.80;99.90;;;;;;5111107;28;20441;-67
2023/02/02 02:51:48;;;;;;;1999.90;999.90;;;6.90;99.90;;;;;;5111082;28;20452;-67
2023/02/02 02:54:18;;;;;;;1999.90;999.90;;;6.90;99.90;;;;;;5110803;28;20440;-67
2023/02/02 02:56:59;;;;;;;1999.90;999.90;;;7.00;99.90;;;;;;5110657;28;20469;-68
2023/02/02 02:59:35;;;;;;;1999.90;999.90;;;7.00;99.90;;;;;;5110830;28;20449;-68
2023/02/02 03:02:16;;;;;;;1999.90;999.90;;;7.10;99.90;;;;;;5110037;28;20456;-67
2023/02/02 03:04:56;;;;;;;1999.90;999.90;;;7.10;99.90;;;;;;5110414;28;21122;-67
2023/02/02 03:07:28;;;;;;;1999.90;999.90;;;7.10;99.90;;;;;;5110285;28;20480;-68
2023/02/02 03:10:00;;;;;;;1999.90;999.90;;;7.10;99.90;;;;;;5110382;28;20440;-67
2023/02/02 03:12:26;;;;;;;1999.90;999.90;;;7.10;99.90;;;;;;5113107;28;20468;-70
2023/02/02 03:14:53;;;;;;;1999.90;999.90;;;7.10;99.90;;;;;;5112944;28;20449;-69
2023/02/02 03:17:20;;;;;;;1999.90;999.90;;;7.10;99.90;;;;;;5114004;28;20441;-69
2023/02/02 03:19:48;;;;;;;1999.90;999.90;;;7.00;99.90;;;;;;5113959;28;20451;-69
2023/02/02 03:22:15;;;;;;;1999.90;999.90;;;7.00;99.90;;;;;;5113139;28;20441;-69
2023/02/02 03:24:42;;;;;;;1999.90;999.90;;;7.00;99.90;;;;;;5114337;28;20445;-69
2023/02/02 03:27:08;;;;;;;1999.90;999.90;;;7.10;99.90;;;;;;5113605;28;20484;-69
2023/02/02 03:29:36;;;;;;;1999.90;999.90;;;7.10;99.90;;;;;;5113927;28;20844;-68
2023/02/02 03:32:03;;;;;;;1999.90;999.90;;;7.10;99.90;;;;;;5113230;28;20448;-69
2023/02/02 03:34:30;;;;;;;1999.90;999.90;;;7.10;99.90;;;;;;5113528;28;20445;-69
2023/02/02 03:36:58;;;;;;;1999.90;999.90;;;7.10;99.90;;;;;;5113944;28;21108;-69
2023/02/02 03:39:25;;;;;;;1999.90;999.90;;;7.20;99.90;;;;;;5113634;28;20445;-69
2023/02/02 03:41:51;;;;;;;1999.90;999.90;;;7.20;99.90;;;;;;5113674;28;20811;-69
2023/02/02 03:44:18;;;;;;;1999.90;999.90;;;7.20;99.90;;;;;;5112837;28;20453;-69
2023/02/02 03:46:45;;;;;;;1999.90;999.90;;;7.20;99.90;;;;;;5113014;28;20488;-68
2023/02/02 03:49:12;;;;;;;1999.90;999.90;;;7.20;99.90;;;;;;5112927;28;20449;-69
2023/02/02 03:51:38;;;;;;;1999.90;999.90;;;7.20;99.90;;;;;;5113277;28;20445;-69
2023/02/02 03:54:06;;;;;;;1999.90;999.90;;;7.20;99.90;;;;;;5112340;28;20480;-69
2023/02/02 03:56:33;;;;;;;1999.90;999.90;;;7.20;99.90;;;;;;5113511;28;20461;-69
2023/02/02 03:59:00;;;;;;;1999.90;999.90;;;7.20;99.90;;;;;;5112682;28;20452;-69
2023/02/02 04:01:28;;;;;;;1999.90;999.90;;;7.20;99.90;;;;;;5113007;28;20449;-70
2023/02/02 04:03:55;;;;;;;1999.90;999.90;;;7.20;99.90;;;;;;5112894;28;20974;-68
2023/02/02 04:06:22;;;;;;;1999.90;999.90;;;7.20;99.90;;;;;;5112975;28;20473;-68
2023/02/02 04:08:49;;;;;;;1999.90;999.90;;;7.20;99.90;;;;;;5113083;28;20448;-68
2023/02/02 04:11:18;;;;;;;1999.90;999.90;;;7.20;99.90;;;;;;5113195;28;20441;-69
2023/02/02 04:13:44;;;;;;;1999.90;999.90;;;7.20;99.90;;;;;;5113045;28;20453;-69
2023/02/02 04:16:12;;;;;;;1999.90;999.90;;;7.20;99.90;;;;;;5113412;28;20469;-69
2023/02/02 04:18:39;;;;;;;1999.90;999.90;;;7.20;99.90;;;;;;5112397;28;20947;-69
2023/02/02 04:21:07;;;;;;;1999.90;999.90;;;7.20;99.90;;;;;;5113506;28;20445;-69
2023/02/02 04:23:34;;;;;;;1999.90;999.90;;;7.20;99.90;;;;;;5113060;28;20560;-70
2023/02/02 04:26:01;;;;;;;1999.90;999.90;;;7.20;99.90;;;;;;5113770;28;20465;-69
2023/02/02 04:28:29;;;;;;;1999.90;999.90;;;7.30;99.90;;;;;;5113582;28;20481;-69
2023/02/02 04:30:57;;;;;;;1999.90;999.90;;;7.30;99.90;;;;;;5113008;28;20451;-69
2023/02/02 04:33:25;;;;;;;1999.90;999.90;;;7.30;99.90;;;;;;5113351;28;20450;-69
2023/02/02 04:35:52;;;;;;;1999.90;999.90;;;7.30;99.90;;;;;;5113430;28;20468;-70
2023/02/02 04:38:19;;;;;;;1999.90;999.90;;;7.30;99.90;;;;;;5114380;28;20441;-69
2023/02/02 04:40:47;;;;;;;1999.90;999.90;;;7.30;99.90;;;;;;5113603;28;20437;-69
2023/02/02 04:43:15;;;;;;;1999.90;999.90;;;7.30;99.90;;;;;;5113457;28;20450;-69
2023/02/02 04:45:43;;;;;;;1999.90;999.90;;;7.30;99.90;;;;;;5113145;28;20986;-69
2023/02/02 04:48:10;;;;;;;1999.90;999.90;;;7.30;99.90;;;;;;5112588;28;20477;-69
2023/02/02 04:50:37;;;;;;;1999.90;999.90;;;7.30;99.90;;;;;;5113149;28;20456;-69
2023/02/02 04:53:05;;;;;;;1999.90;999.90;;;7.30;99.90;;;;;;5112406;28;20464;-69
2023/02/02 04:55:35;;;;;;;1999.90;999.90;;;7.30;99.90;;;;;;5113437;28;20469;-69
2023/02/02 04:58:02;;;;;;;1999.90;999.90;;;7.30;99.90;;;;;;5113170;28;20453;-69
2023/02/02 05:00:29;;;;;;;1999.90;999.90;;;7.30;99.90;;;;;;5113127;28;20437;-69
2023/02/02 05:02:57;;;;;;;1999.90;999.90;;;7.30;99.90;;;;;;5112432;28;21135;-71
2023/02/02 05:05:23;;;;;;;1999.90;999.90;;;7.30;99.90;;;;;;5112629;28;20458;-69
2023/02/02 05:07:50;;;;;;;1999.90;999.90;;;7.30;99.90;;;;;;5111846;28;20990;-69
2023/02/02 05:10:17;;;;;;;1999.90;999.90;;;7.30;99.90;;;;;;5112185;28;20966;-69
2023/02/02 05:12:44;;;;;;;1999.90;999.90;;;7.30;99.90;;;;;;5111121;28;20444;-69
2023/02/02 05:15:11;;;;;;;1999.90;999.90;;;7.30;99.90;;;;;;5110747;28;20560;-69
2023/02/02 05:17:38;;;;;;;1999.90;999.90;;;7.30;99.90;;;;;;5111838;28;20437;-70
2023/02/02 05:20:07;;;;;;;1999.90;999.90;;;7.30;99.90;;;;;;5110815;28;20453;-68
2023/02/02 05:22:35;;;;;;;1999.90;999.90;;;7.30;99.90;;;;;;5112353;28;20829;-70
2023/02/02 05:25:01;;;;;;;1999.90;999.90;;;7.40;99.90;;;;;;5112127;28;20465;-69
2023/02/02 05:27:28;;;;;;;1999.90;999.90;;;7.30;99.90;;;;;;5111392;28;20484;-70
2023/02/02 05:29:55;;;;;;;1999.90;999.90;;;7.30;99.90;;;;;;5111010;28;20437;-69
2023/02/02 05:32:22;;;;;;;1999.90;999.90;;;7.30;99.90;;;;;;5110720;28;20957;-69
2023/02/02 05:34:48;;;;;;;1999.90;999.90;;;7.30;99.90;;;;;;5111468;28;20446;-69
2023/02/02 05:37:17;;;;;;;1999.90;999.90;;;7.30;99.90;;;;;;5111325;28;20437;-71
2023/02/02 05:39:43;;;;;;;1999.90;999.90;;;7.30;99.90;;;;;;5110873;28;20445;-69
2023/02/02 05:42:10;;;;;;;1999.90;999.90;;;7.30;99.90;;;;;;5111544;28;20449;-70
2023/02/02 05:44:37;;;;;;;1999.90;999.90;;;7.30;99.90;;;;;;5111240;28;20449;-68
2023/02/02 05:47:04;;;;;;;1999.90;999.90;;;7.30;99.90;;;;;;5111163;28;20558;-69
2023/02/02 05:49:30;;;;;;;1999.90;999.90;;;7.30;99.90;;;;;;5111770;28;20445;-69
2023/02/02 05:51:58;;;;;;;1999.90;999.90;;;7.30;99.90;;;;;;5109697;28;20456;-69
2023/02/02 05:54:26;;;;;;;1999.90;999.90;;;7.30;99.90;;;;;;5110328;28;20441;-70
2023/02/02 05:56:54;;;;;;;1999.90;999.90;;;7.30;99.90;;;;;;5110214;28;21013;-69
2023/02/02 05:59:21;;;;;;;1999.90;999.90;;;7.40;99.90;;;;;;5110236;28;20433;-69
2023/02/02 06:01:48;;;;;;;1999.90;999.90;;;7.30;99.90;;;;;;5110354;28;20452;-69
2023/02/02 06:04:16;;;;;;;1999.90;999.90;;;7.30;99.90;;;;;;5110916;28;20445;-69
2023/02/02 06:06:42;;;;;;;1999.90;999.90;;;7.30;99.90;;;;;;5110267;28;20461;-67
2023/02/02 06:09:09;;;;;;;1999.90;999.90;;;7.40;99.90;;;;;;5110090;28;20445;-66
2023/02/02 06:11:38;;;;;;;1999.90;999.90;;;7.40;99.90;;;;;;5110501;28;20957;-68
2023/02/02 06:14:05;;;;;;;1999.90;999.90;;;7.40;99.90;;;;;;5103075;28;20446;-70
2023/02/02 06:16:31;;;;;;;1999.90;999.90;;;7.40;99.90;;;;;;5110376;28;20471;-69
2023/02/02 06:18:58;;;;;;;1999.90;999.90;;;7.40;99.90;;;;;;5110434;28;20457;-69
2023/02/02 06:21:25;;;;;;;1999.90;999.90;;;7.40;99.90;;;;;;5110171;28;20824;-68
2023/02/02 06:23:52;;;;;;;1999.90;999.90;;;7.40;99.90;;;;;;5110284;28;20453;-68
2023/02/02 06:26:19;;;;;;;1999.90;999.90;;;7.40;99.90;;;;;;5110361;28;20472;-69
2023/02/02 06:28:51;;;;;;;1999.90;999.90;;;7.40;99.90;;;;;;5105006;28;21007;-67
2023/02/02 06:31:18;;;;;;;1999.90;999.90;;;7.40;99.90;;;;;;5111218;28;20445;-67
2023/02/02 06:33:45;;;;;;;1999.90;999.90;;;7.40;99.90;;;;;;5110537;28;20433;-67
2023/02/02 06:36:12;;;;;;;1999.90;999.90;;;7.40;99.90;;;;;;5111512;28;20469;-67
2023/02/02 06:38:39;;;;;;;1999.90;999.90;;;7.40;99.90;;;;;;5112456;28;20433;-66
2023/02/02 06:41:06;;;;;;;1999.90;999.90;;;7.40;99.90;;;;;;5112249;28;20441;-66
2023/02/02 06:43:33;;;;;;;1999.90;999.90;;;7.40;99.90;;;;;;5112161;28;20445;-67
2023/02/02 06:46:01;;;;;;;1999.90;999.90;;;7.30;99.90;;;;;;5113266;28;20463;-68
2023/02/02 06:48:28;;;;;;;1999.90;999.90;;;7.40;99.90;;;;;;5115715;28;20487;-68
2023/02/02 06:50:58;;;;;;;1999.90;999.90;;;7.40;99.90;;;;;;5116010;28;20938;-64
2023/02/02 06:53:25;;;;;;;1999.90;999.90;;;7.40;99.90;;;;;;5115456;28;20589;-68
2023/02/02 06:55:55;;;;;;;1999.90;999.90;;;7.40;99.90;;;;;;5118578;28;20981;-67
2023/02/02 06:58:22;;;;;;;1999.90;999.90;;;7.40;99.90;;;;;;5118316;28;20445;-67
2023/02/02 07:00:49;;;;;;;1999.90;999.90;;;7.40;99.90;;;;;;5117452;28;20437;-66
2023/02/02 07:03:20;;;;;;;1999.90;999.90;;;7.40;99.90;;;;;;5115816;28;21086;-66
2023/02/02 07:05:46;;;;;;;1999.90;999.90;;;7.40;99.90;;;;;;5118075;28;20614;-66
2023/02/02 07:08:13;;;;;;;1999.90;999.90;;;7.40;99.90;;;;;;5118630;28;20499;-66
2023/02/02 07:10:40;;;;;;;1999.90;999.90;;;7.40;99.90;;;;;;5117510;28;20840;-67
2023/02/02 07:13:07;;;;;;;1999.90;999.90;;;7.40;99.90;;;;;;5117116;28;20445;-68
2023/02/02 07:15:34;;;;;;;1999.90;999.90;;;7.50;99.90;;;;;;5115838;28;20460;-66
2023/02/02 07:18:00;;;;;;;1999.90;999.90;;;7.40;99.90;;;;;;5117751;28;20444;-66
2023/02/02 07:20:28;;;;;;;1999.90;999.90;;;7.40;99.90;;;;;;5116928;28;21144;-66
2023/02/02 07:22:55;;;;;;;1999.90;999.90;;;7.50;99.90;;;;;;5116376;27;20452;-67
2023/02/02 07:25:22;;;;;;;1999.90;999.90;;;7.50;99.90;;;;;;5120027;27;20461;-67
2023/02/02 07:27:53;;;;;;;1999.90;999.90;;;7.50;99.90;;;;;;5117876;27;20514;-66
2023/02/02 07:30:20;;;;;;;1999.90;999.90;;;7.50;99.90;;;;;;5119406;27;20441;-66
2023/02/02 07:32:47;;;;;;;1999.90;999.90;;;7.50;99.90;;;;;;5121324;27;20452;-64
2023/02/02 07:35:14;;;;;;;1999.90;999.90;;;7.50;99.90;;;;;;5118479;27;20469;-67
2023/02/02 07:37:42;;;;;;;1999.90;999.90;;;7.50;99.90;;;;;;5118979;27;20441;-67
2023/02/02 07:40:10;;;;;;;1999.90;999.90;;;7.50;99.90;;;;;;5116408;28;20452;-67
2023/02/02 07:42:37;;;;;;;1999.90;999.90;;;7.50;99.90;;;;;;5114708;27;21254;-67
2023/02/02 07:45:05;;;;;;;1999.90;999.90;;;7.50;99.90;;;;;;5118347;27;20852;-66
2023/02/02 07:47:32;;;;;;;1999.90;999.90;;;7.50;99.90;;;;;;5118160;27;20857;-66
2023/02/02 07:49:58;;;;;;;1999.90;999.90;;;7.50;99.90;;;;;;5116701;27;20469;-67
2023/02/02 07:52:25;;;;;;;1999.90;999.90;;;7.60;99.90;;;;;;5116838;27;20460;-67
2023/02/02 07:54:53;;;;;;;1999.90;999.90;;;7.60;99.90;;;;;;5117721;27;20461;-65
2023/02/02 07:57:20;;;;;;;1999.90;999.90;;;7.60;99.90;;;;;;5116029;27;20506;-66
2023/02/02 07:59:49;;;;;;;1999.90;999.90;;;7.60;99.90;;;;;;5114620;28;20552;-67
2023/02/02 08:02:16;;;;;;;1999.90;999.90;;;7.60;99.90;;;;;;5115095;28;20561;-67
2023/02/02 08:04:42;;;;;;;1999.90;999.90;;;7.60;99.90;;;;;;5116570;27;20458;-67
2023/02/02 08:07:09;;;;;;;1999.90;999.90;;;7.70;99.90;;;;;;5114315;28;20449;-67
2023/02/02 08:09:37;;;;;;;1999.90;999.90;;;7.70;99.90;;;;;;5118479;28;20481;-67
2023/02/02 08:12:05;;;;;;;1999.90;999.90;;;7.70;99.90;;;;;;5117491;28;20478;-67
2023/02/02 08:14:32;;;;;;;1999.90;999.90;;;7.70;99.90;;;;;;5098047;28;20671;-67
2023/02/02 08:16:59;;;;;;;1999.90;999.90;;;7.70;99.90;;;;;;5097230;28;20466;-67
2023/02/02 08:19:25;;;;;;;1999.90;999.90;;;7.70;99.90;;;;;;5114026;28;20437;-67
2023/02/02 08:21:52;;;;;;;1999.90;999.90;;;7.70;99.90;;;;;;5118278;28;20469;-67
2023/02/02 08:24:19;;;;;;;1999.90;999.90;;;7.80;99.90;;;;;;5118722;28;20455;-65
2023/02/02 08:26:46;;;;;;;1999.90;999.90;;;7.80;99.90;;;;;;5118623;28;21982;-67
2023/02/02 08:29:16;;;;;;;1999.90;999.90;;;7.80;99.90;;;;;;5118919;28;20483;-67
2023/02/02 08:31:44;;;;;;;1999.90;999.90;;;7.80;99.90;;;;;;5120126;28;20450;-66
2023/02/02 08:34:11;;;;;;;1999.90;999.90;;;7.80;99.90;;;;;;5119143;28;20445;-66
2023/02/02 08:36:38;;;;;;;1999.90;999.90;;;7.80;99.90;;;;;;5118191;28;20920;-67
2023/02/02 08:39:07;;;;;;;1999.90;999.90;;;7.90;99.90;;;;;;5119408;28;20791;-68
2023/02/02 08:41:35;;;;;;;1999.90;999.90;;;7.90;99.90;;;;;;5110901;28;20446;-67
2023/02/02 08:44:05;;;;;;;1999.90;999.90;;;7.90;99.90;;;;;;5118497;28;20445;-67
2023/02/02 08:46:33;;;;;;;1999.90;999.90;;;7.90;99.90;;;;;;5120004;28;20453;-67
2023/02/02 08:49:00;;;;;;;1999.90;999.90;;;7.90;99.90;;;;;;5118974;28;20473;-67
2023/02/02 08:51:27;;;;;;;1999.90;999.90;;;7.90;99.90;;;;;;5119060;28;20437;-67
2023/02/02 08:53:53;;;;;;;1999.90;999.90;;;7.90;99.90;;;;;;5118686;28;20449;-67
2023/02/02 08:56:22;;;;;;;1999.90;999.90;;;7.80;99.90;;;;;;5117872;28;20453;-67
2023/02/02 08:58:50;;;;;;;1999.90;999.90;;;7.80;99.90;;;;;;5117591;28;20441;-67
2023/02/02 09:01:20;;;;;;;1999.90;999.90;;;7.80;99.90;;;;;;5115679;27;20452;-66
2023/02/02 09:03:48;;;;;;;1999.90;999.90;;;7.80;99.90;;;;;;5117637;28;20453;-66
2023/02/02 09:06:16;;;;;;;1999.90;999.90;;;7.80;99.90;;;;;;5116793;28;20468;-68
2023/02/02 09:08:44;;;;;;;1999.90;999.90;;;7.90;99.90;;;;;;5116888;28;20477;-67
2023/02/02 09:11:12;;;;;;;1999.90;999.90;;;7.80;99.90;;;;;;5119522;28;20449;-69
2023/02/02 09:13:40;;;;;;;1999.90;999.90;;;7.80;99.90;;;;;;5118918;28;20467;-68
2023/02/02 09:16:10;;;;;;;1999.90;999.90;;;7.90;99.90;;;;;;5118367;28;20912;-68
2023/02/02 09:18:36;;;;;;;1999.90;999.90;;;7.80;99.90;;;;;;5118109;28;20446;-68
2023/02/02 09:21:07;;;;;;;1999.90;999.90;;;7.80;99.90;;;;;;5113942;28;20451;-69
2023/02/02 09:23:35;;;;;;;1999.90;999.90;;;7.80;99.90;;;;;;5113737;28;20446;-69
2023/02/02 09:26:10;;;;;;;1999.90;999.90;;;7.80;99.90;;;;;;5117063;28;20556;-68
2023/02/02 09:28:37;;;;;;;1999.90;999.90;;;7.80;99.90;;;;;;5115938;28;20901;-68
2023/02/02 09:31:04;;;;;;;1999.90;999.90;;;7.80;99.90;;;;;;5110724;28;20453;-67
2023/02/02 09:33:31;;;;;;;1999.90;999.90;;;7.80;99.90;;;;;;5114005;28;20498;-68
2023/02/02 09:36:05;;;;;;;1999.90;999.90;;;7.80;99.90;;;;;;5113856;28;20465;-68
2023/02/02 09:38:32;;;;;;;1999.90;999.90;;;7.80;99.90;;;;;;5110876;28;20826;-67
2023/02/02 09:40:59;;;;;;;1999.90;999.90;;;7.80;99.90;;;;;;5114338;28;20445;-69
2023/02/02 09:43:41;;;;;;;1999.90;999.90;;;7.80;99.90;;;;;;5113953;28;20437;-67
2023/02/02 09:46:15;;;;;;;1999.90;999.90;;;7.80;99.90;;;;;;5114449;28;20466;-68
2023/02/02 09:48:49;;;;;;;1999.90;999.90;;;7.80;99.90;;;;;;5114069;28;20555;-68
2023/02/02 09:51:21;;;;;;;1999.90;999.90;;;7.80;99.90;;;;;;5103625;28;20454;-69
2023/02/02 09:53:52;;;;;;;1999.90;999.90;;;7.90;99.90;;;;;;5108799;28;20445;-68
2023/02/02 09:56:27;;;;;;;1999.90;999.90;;;7.80;99.90;;;;;;5110854;28;20465;-68
2023/02/02 09:58:56;;;;;;;1999.90;999.90;;;7.80;99.90;;;;;;5111337;28;20448;-69
2023/02/02 10:01:26;;;;;;;1999.90;999.90;;;7.70;99.90;;;;;;5112470;28;20827;-68
2023/02/02 10:04:01;;;;;;;1999.90;999.90;;;7.70;99.90;;;;;;5110956;28;21181;-68
2023/02/02 10:06:35;;;;;;;1999.90;999.90;;;7.70;99.90;;;;;;5111258;28;20517;-68
2023/02/02 10:09:11;;;;;;;1999.90;999.90;;;7.60;99.90;;;;;;5111068;28;20483;-68
2023/02/02 10:11:44;;;;;;;1999.90;999.90;;;7.70;99.90;;;;;;5111901;28;20445;-68
2023/02/02 10:14:17;;;;;;;1999.90;999.90;;;7.60;99.90;;;;;;5111430;28;20455;-69
2023/02/02 10:16:46;;;;;;;1999.90;999.90;;;7.60;99.90;;;;;;5112064;28;20488;-69
2023/02/02 10:19:14;;;;;;;1999.90;999.90;;;7.70;99.90;;;;;;5112756;28;20997;-72
2023/02/02 10:21:48;;;;;;;1999.90;999.90;;;7.70;99.90;;;;;;5106283;28;20468;-67
2023/02/02 10:24:19;;;;;;;1999.90;999.90;;;7.80;99.90;;;;;;5107774;28;20457;-68
2023/02/02 10:26:48;;;;;;;1999.90;999.90;;;7.70;99.90;;;;;;5103776;28;20465;-68
2023/02/02 10:29:18;;;;;;;1999.90;999.90;;;7.70;99.90;;;;;;5112198;28;20476;-68
2023/02/02 10:31:55;;;;;;;1999.90;999.90;;;7.70;99.90;;;;;;5112273;28;20449;-68
2023/02/02 10:34:27;;;;;;;1999.90;999.90;;;7.70;99.90;;;;;;5113864;28;20437;-68
2023/02/02 10:37:19;;;;;;;1999.90;999.90;;;7.70;99.90;;;;;;5114058;28;20461;-68
2023/02/02 10:40:04;;;;;;;1999.90;999.90;;;7.70;99.90;;;;;;5112773;28;21399;-68
2023/02/02 10:42:40;;;;;;;1999.90;999.90;;;7.60;99.90;;;;;;5112830;28;20954;-67
2023/02/02 10:45:15;;;;;;;1999.90;999.90;;;7.50;99.90;;;;;;5114860;28;20468;-68
2023/02/02 10:47:41;;;;;;;1999.90;999.90;;;7.40;99.90;;;;;;5113640;28;20448;-66
2023/02/02 10:50:17;;;;;;;1999.90;999.90;;;7.30;99.90;;;;;;5113621;28;21163;-71
2023/02/02 10:52:49;;;;;;;1999.90;999.90;;;7.30;99.90;;;;;;5112890;28;20539;-65
2023/02/02 10:55:22;;;;;;;1999.90;999.90;;;7.30;99.90;;;;;;5114075;28;20469;-65
2023/02/02 10:57:58;;;;;;;1999.90;999.90;;;7.40;99.90;;;;;;5111563;28;20449;-65
2023/02/02 11:00:30;;;;;;;1999.90;999.90;;;7.40;99.90;;;;;;5111092;28;20437;-66
2023/02/02 11:02:57;;;;;;;1999.90;999.90;;;7.50;99.90;;;;;;5110680;28;20489;-65
2023/02/02 11:08:15;;;;;;;1999.90;999.90;;;7.50;99.90;;;;;;5111466;28;20439;-66
2023/02/02 11:10:44;;;;;;;1999.90;999.90;;;7.60;99.90;;;;;;5106375;27;20451;-64
2023/02/02 11:13:24;;;;;;;1999.90;999.90;;;7.70;99.90;;;;;;5110934;28;20449;-65
2023/02/02 11:15:50;;;;;;;1999.90;999.90;;;7.70;99.90;;;;;;5104960;28;20467;-65
2023/02/02 11:18:29;;;;;;;1999.90;999.90;;;7.90;99.90;;;;;;5110439;28;20453;-66
2023/02/02 11:20:57;;;;;;;1999.90;999.90;;;8.00;99.90;;;;;;5109416;28;20436;-65
2023/02/02 11:23:28;;;;;;;1999.90;999.90;;;8.10;99.90;;;;;;5109655;28;20947;-67
2023/02/02 11:26:00;;;;;;;1999.90;999.90;;;8.10;99.90;;;;;;5107463;28;20994;-66
2023/02/02 11:28:31;;;;;;;1999.90;999.90;;;8.20;99.90;;;;;;5110024;28;20457;-66
2023/02/02 11:30:58;;;;;;;1999.90;999.90;;;8.20;99.90;;;;;;5109802;28;20540;-67
2023/02/02 11:33:30;;;;;;;1999.90;999.90;;;8.20;99.90;;;;;;5110616;28;20558;-66
2023/02/02 11:35:58;;;;;;;1999.90;999.90;;;8.20;99.90;;;;;;5111837;28;20469;-66
2023/02/02 11:38:27;;;;;;;1999.90;999.90;;;8.20;99.90;;;;;;5110015;28;20825;-65
2023/02/02 11:40:59;;;;;;;1999.90;999.90;;;8.10;99.90;;;;;;5111011;28;20519;-65
2023/02/02 11:43:29;;;;;;;1999.90;999.90;;;8.10;99.90;;;;;;5109478;28;20477;-66
2023/02/02 11:45:59;;;;;;;1999.90;999.90;;;8.10;99.90;;;;;;5111302;28;20461;-65
2023/02/02 11:48:29;;;;;;;1999.90;999.90;;;8.00;99.90;;;;;;5111473;27;20814;-66
2023/02/02 11:50:58;;;;;;;1999.90;999.90;;;7.90;99.90;;;;;;5110570;27;20448;-67
2023/02/02 11:53:28;;;;;;;1999.90;999.90;;;7.90;99.90;;;;;;5111963;27;22029;-66
2023/02/02 11:55:57;;;;;;;1999.90;999.90;;;7.80;99.90;;;;;;5111999;27;20460;-66
2023/02/02 11:58:27;;;;;;;1999.90;999.90;;;7.80;99.90;;;;;;5108973;28;20993;-65
2023/02/02 12:01:00;;;;;;;1999.90;999.90;;;7.70;99.90;;;;;;5111495;28;20494;-66
2023/02/02 12:03:33;;;;;;;1999.90;999.90;;;7.70;99.90;;;;;;5110094;27;21126;-66
2023/02/02 12:06:01;;;;;;;1999.90;999.90;;;7.70;99.90;;;;;;5112329;27;20465;-65
2023/02/02 12:08:30;;;;;;;1999.90;999.90;;;7.70;99.90;;;;;;5111740;27;20441;-66
2023/02/02 12:11:00;;;;;;;1999.90;999.90;;;7.70;99.90;;;;;;5111340;28;20538;-66
2023/02/02 12:13:39;;;;;;;1999.90;999.90;;;7.60;99.90;;;;;;5107179;28;20472;-65
2023/02/02 12:16:24;;;;;;;1999.90;999.90;;;7.60;99.90;;;;;;5108413;28;20461;-65
2023/02/02 12:19:05;;;;;;;1999.90;999.90;;;7.60;99.90;;;;;;5110588;28;20456;-65
2023/02/02 12:21:43;;;;;;;1999.90;999.90;;;7.60;99.90;;;;;;5111088;27;20834;-65
2023/02/02 12:24:27;;;;;;;1999.90;999.90;;;7.50;99.90;;;;;;5110410;28;20452;-66
2023/02/02 12:27:01;;;;;;;1999.90;999.90;;;7.40;99.90;;;;;;5110321;28;20929;-64
2023/02/02 12:29:44;;;;;;;1999.90;999.90;;;7.30;99.90;;;;;;5110425;27;21024;-67
2023/02/02 12:32:28;;;;;;;1999.90;999.90;;;7.20;99.90;;;;;;5110191;28;20449;-66